createdAt,value
2023-04-16T00:01:23.686Z,90.74
2023-04-16T00:05:01.512Z,91.08
2023-04-16T00:08:39.255Z,91.23
2023-04-16T00:12:16.972Z,91.57
2023-04-16T00:15:54.139Z,91.55
2023-04-16T00:19:31.890Z,91.31
2023-04-16T00:23:09.755Z,91.23
2023-04-16T00:26:47.302Z,91.43
2023-04-16T00:30:25.119Z,91.08
2023-04-16T00:34:02.550Z,91.14
2023-04-16T00:37:40.475Z,91.13
2023-04-16T00:41:18.160Z,91.17
2023-04-16T00:44:55.592Z,90.96
2023-04-16T00:48:35.030Z,90.92
2023-04-16T00:52:12.259Z,91.25
2023-04-16T00:55:48.638Z,91.17
2023-04-16T00:59:27.770Z,91.23
2023-04-16T01:03:05.429Z,91.30
2023-04-16T01:06:41.627Z,91.68
2023-04-16T01:10:19.393Z,91.77
2023-04-16T01:13:57.174Z,91.84
2023-04-16T01:17:34.682Z,92.00
2023-04-16T01:21:12.439Z,91.90
2023-04-16T01:24:50.163Z,91.71
2023-04-16T01:28:27.897Z,91.97
2023-04-16T01:32:05.784Z,92.16
2023-04-16T01:35:43.120Z,92.26
2023-04-16T01:39:21.125Z,92.22
2023-04-16T01:43:00.704Z,92.70
2023-04-16T01:46:37.915Z,92.00
2023-04-16T01:50:14.157Z,92.05
2023-04-16T01:53:51.840Z,92.19
2023-04-16T01:57:29.869Z,91.92
2023-04-16T02:01:07.071Z,92.16
2023-04-16T02:04:45.975Z,92.22
2023-04-16T02:08:22.689Z,92.37
2023-04-16T02:12:00.471Z,92.46
2023-04-16T02:15:37.882Z,92.72
2023-04-16T02:19:14.979Z,93.08
2023-04-16T02:22:53.039Z,93.11
2023-04-16T02:26:32.770Z,93.25
2023-04-16T02:30:09.074Z,93.07
2023-04-16T02:33:46.004Z,93.15
2023-04-16T02:37:23.814Z,92.93
2023-04-16T02:41:01.312Z,93.11
2023-04-16T02:44:39.200Z,92.83
2023-04-16T02:48:16.433Z,93.07
2023-04-16T02:51:54.468Z,92.90
2023-04-16T02:55:31.935Z,92.55
2023-04-16T02:59:10.106Z,92.72
2023-04-16T03:02:47.159Z,92.83
2023-04-16T03:06:26.295Z,92.75
2023-04-16T03:10:02.753Z,92.87
2023-04-16T03:13:40.270Z,92.82
2023-04-16T03:17:18.139Z,92.78
2023-04-16T03:20:55.778Z,92.74
2023-04-16T03:24:33.191Z,93.06
2023-04-16T03:28:11.122Z,93.16
2023-04-16T03:31:48.684Z,93.14
2023-04-16T03:35:26.180Z,93.28
2023-04-16T03:39:03.967Z,93.47
2023-04-16T03:42:41.941Z,93.30
2023-04-16T03:46:19.166Z,93.76
2023-04-16T03:49:57.336Z,93.66
2023-04-16T03:53:34.561Z,93.68
2023-04-16T03:57:12.299Z,93.95
2023-04-16T04:00:52.040Z,93.85
2023-04-16T04:04:28.007Z,93.95
2023-04-16T04:08:05.959Z,94.19
2023-04-16T04:11:44.055Z,94.41
2023-04-16T04:15:20.805Z,94.38
2023-04-16T04:19:00.267Z,94.25
2023-04-16T04:22:36.173Z,94.30
2023-04-16T04:26:13.897Z,94.41
2023-04-16T04:29:51.427Z,94.43
2023-04-16T04:33:29.229Z,94.42
2023-04-16T04:37:06.890Z,94.37
2023-04-16T04:40:44.462Z,94.48
2023-04-16T04:44:22.436Z,94.54
2023-04-16T04:47:59.921Z,94.44
2023-04-16T04:51:37.643Z,94.61
2023-04-16T04:55:16.273Z,94.69
2023-04-16T04:58:52.838Z,94.82
2023-04-16T05:02:31.432Z,94.77
2023-04-16T05:06:08.465Z,94.65
2023-04-16T05:09:45.932Z,94.79
2023-04-16T05:13:23.554Z,94.91
2023-04-16T05:17:01.423Z,94.97
2023-04-16T05:20:39.148Z,94.86
2023-04-16T05:24:16.603Z,94.91
2023-04-16T05:27:55.146Z,95.17
2023-04-16T05:31:32.018Z,95.03
2023-04-16T05:35:10.090Z,95.07
2023-04-16T05:38:47.593Z,95.40
2023-04-16T05:42:24.596Z,95.13
2023-04-16T05:46:02.961Z,95.44
2023-04-16T05:49:40.189Z,95.09
2023-04-16T05:53:19.171Z,95.17
2023-04-16T05:56:55.878Z,95.14
2023-04-16T06:00:34.225Z,95.31
2023-04-16T06:04:11.236Z,95.47
2023-04-16T06:07:49.071Z,95.60
2023-04-16T06:11:27.812Z,95.22
2023-04-16T06:15:04.552Z,95.41
2023-04-16T06:18:41.534Z,95.33
2023-04-16T06:22:19.523Z,95.60
2023-04-16T06:25:57.579Z,95.95
2023-04-16T06:29:41.079Z,95.69
2023-04-16T06:33:12.760Z,95.62
2023-04-16T06:36:50.270Z,95.55
2023-04-16T06:40:28.040Z,95.45
2023-04-16T06:44:06.132Z,95.38
2023-04-16T06:47:43.297Z,95.22
2023-04-16T06:51:21.065Z,95.24
2023-04-16T06:54:58.991Z,94.96
2023-04-16T06:58:36.658Z,94.72
2023-04-16T07:02:14.143Z,94.31
2023-04-16T07:05:51.956Z,94.30
2023-04-16T07:09:29.892Z,94.25
2023-04-16T07:13:06.976Z,94.00
2023-04-16T07:16:44.630Z,93.43
2023-04-16T07:20:22.359Z,93.03
2023-04-16T07:23:59.994Z,92.61
2023-04-16T07:27:37.663Z,92.15
2023-04-16T07:31:15.767Z,91.90
2023-04-16T07:34:53.235Z,92.07
2023-04-16T07:38:30.780Z,92.08
2023-04-16T07:42:08.484Z,91.71
2023-04-16T07:45:46.161Z,91.10
2023-04-16T07:49:23.628Z,89.78
2023-04-16T07:53:01.785Z,89.60
2023-04-16T07:56:39.006Z,89.57
2023-04-16T08:00:17.095Z,89.08
2023-04-16T08:03:54.644Z,89.11
2023-04-16T08:07:34.458Z,88.24
2023-04-16T08:11:10.043Z,87.42
2023-04-16T08:14:48.008Z,87.33
2023-04-16T08:18:25.101Z,87.30
2023-04-16T08:22:02.773Z,86.12
2023-04-16T08:25:40.529Z,86.17
2023-04-16T08:29:18.293Z,85.92
2023-04-16T08:32:56.123Z,82.94
2023-04-16T08:36:52.181Z,82.28
2023-04-16T08:40:12.889Z,80.19
2023-04-16T08:43:54.382Z,77.75
2023-04-16T08:47:32.050Z,78.63
2023-04-16T08:51:07.884Z,79.20
2023-04-16T08:54:46.617Z,78.66
2023-04-16T08:58:22.460Z,77.89
2023-04-16T09:01:59.745Z,76.94
2023-04-16T09:05:35.643Z,75.87
2023-04-16T09:09:13.229Z,78.65
2023-04-16T09:12:50.257Z,79.41
2023-04-16T09:16:33.760Z,77.58
2023-04-16T09:20:11.299Z,75.49
2023-04-16T09:23:43.967Z,74.68
2023-04-16T09:27:24.706Z,74.77
2023-04-16T09:31:16.079Z,74.01
2023-04-16T09:34:55.089Z,71.72
2023-04-16T09:38:14.006Z,73.04
2023-04-16T09:41:54.838Z,73.35
2023-04-16T09:45:33.103Z,72.44
2023-04-16T09:49:19.453Z,70.81
2023-04-16T09:52:49.822Z,68.95
2023-04-16T09:56:26.358Z,67.46
2023-04-16T10:00:06.527Z,68.29
2023-04-16T10:03:40.498Z,68.05
2023-04-16T10:07:15.684Z,67.05
2023-04-16T10:10:56.675Z,66.72
2023-04-16T10:14:31.606Z,66.05
2023-04-16T10:18:08.652Z,65.98
2023-04-16T10:21:47.144Z,66.27
2023-04-16T10:25:24.592Z,66.75
2023-04-16T10:29:02.705Z,65.96
2023-04-16T10:32:40.138Z,66.26
2023-04-16T10:36:23.753Z,66.15
2023-04-16T10:39:54.563Z,63.99
2023-04-16T10:43:34.463Z,63.60
2023-04-16T10:47:12.356Z,63.09
2023-04-16T10:50:58.218Z,63.29
2023-04-16T10:54:27.424Z,63.87
2023-04-16T10:58:02.765Z,63.56
2023-04-16T11:01:46.048Z,63.08
2023-04-16T11:05:24.616Z,63.14
2023-04-16T11:08:56.881Z,63.56
2023-04-16T11:16:16.850Z,63.39
2023-04-16T11:19:50.832Z,62.50
2023-04-16T11:23:28.044Z,62.45
2023-04-16T11:27:05.413Z,61.04
2023-04-16T11:30:43.300Z,61.01
2023-04-16T11:34:21.558Z,61.20
2023-04-16T11:37:58.909Z,61.09
2023-04-16T11:41:49.791Z,61.54
2023-04-16T11:45:14.156Z,61.36
2023-04-16T11:48:54.029Z,61.16
2023-04-16T11:52:33.818Z,61.23
2023-04-16T11:56:07.412Z,61.00
2023-04-16T12:00:01.673Z,61.24
2023-04-16T12:03:44.353Z,60.75
2023-04-16T12:07:06.917Z,61.00
2023-04-16T12:10:53.845Z,61.59
2023-04-16T12:14:15.679Z,61.67
2023-04-16T12:18:08.118Z,61.99
2023-04-16T12:21:50.527Z,62.03
2023-04-16T12:25:13.277Z,62.66
2023-04-16T12:28:45.924Z,62.85
2023-04-16T12:32:23.718Z,62.33
2023-04-16T12:36:02.247Z,62.66
2023-04-16T12:39:39.018Z,62.97
2023-04-16T12:43:16.599Z,62.77
2023-04-16T12:46:56.687Z,62.61
2023-04-16T12:50:32.004Z,63.02
2023-04-16T12:54:09.976Z,63.93
2023-04-16T12:57:49.017Z,63.44
2023-04-16T13:01:25.799Z,64.07
2023-04-16T13:05:02.785Z,64.83
2023-04-16T13:08:42.025Z,64.94
2023-04-16T13:12:19.009Z,65.15
2023-04-16T13:15:55.977Z,65.80
2023-04-16T13:19:33.652Z,64.91
2023-04-16T13:23:12.100Z,64.83
2023-04-16T13:26:48.819Z,65.82
2023-04-16T13:30:26.854Z,65.94
2023-04-16T13:34:05.058Z,66.38
2023-04-16T13:37:42.138Z,66.81
2023-04-16T13:41:19.578Z,66.97
2023-04-16T13:44:58.495Z,67.09
2023-04-16T13:48:35.190Z,67.30
2023-04-16T13:52:12.586Z,68.10
2023-04-16T13:55:51.226Z,67.91
2023-04-16T13:59:27.910Z,67.92
2023-04-16T14:03:07.071Z,67.99
2023-04-16T14:06:43.167Z,67.31
2023-04-16T14:10:21.385Z,67.55
2023-04-16T14:13:58.629Z,67.41
2023-04-16T14:17:37.471Z,67.78
2023-04-16T14:21:13.700Z,67.88
2023-04-16T14:24:51.402Z,67.75
2023-04-16T14:28:29.392Z,67.71
2023-04-16T14:32:07.116Z,67.93
2023-04-16T14:35:45.098Z,68.10
2023-04-16T14:39:22.712Z,68.27
2023-04-16T14:43:00.126Z,68.74
2023-04-16T14:46:38.847Z,68.60
2023-04-16T14:50:15.904Z,68.07
2023-04-16T14:53:53.242Z,67.98
2023-04-16T14:57:31.115Z,67.48
2023-04-16T15:01:09.567Z,67.97
2023-04-16T15:04:46.398Z,67.75
2023-04-16T15:08:24.829Z,67.88
2023-04-16T15:12:01.657Z,67.95
2023-04-16T15:15:39.414Z,68.04
2023-04-16T15:19:17.890Z,67.75
2023-04-16T15:22:54.674Z,67.65
2023-04-16T15:26:32.566Z,67.73
2023-04-16T15:30:10.767Z,67.70
2023-04-16T15:33:48.642Z,67.69
2023-04-16T15:37:25.064Z,68.05
2023-04-16T15:41:03.118Z,67.93
2023-04-16T15:44:40.899Z,68.36
2023-04-16T15:48:18.238Z,68.19
2023-04-16T15:51:56.636Z,68.36
2023-04-16T15:55:33.714Z,68.06
2023-04-16T15:59:11.838Z,68.52
2023-04-16T16:03:09.264Z,68.15
2023-04-16T16:06:27.558Z,67.87
2023-04-16T16:10:06.897Z,68.35
2023-04-16T16:13:44.123Z,68.27
2023-04-16T16:17:20.784Z,68.33
2023-04-16T16:20:58.551Z,68.30
2023-04-16T16:24:35.273Z,68.58
2023-04-16T16:28:12.825Z,69.04
2023-04-16T16:32:10.777Z,69.59
2023-04-16T16:35:28.229Z,69.48
2023-04-16T16:39:05.924Z,70.11
2023-04-16T16:42:43.738Z,70.26
2023-04-16T16:46:21.636Z,70.99
2023-04-16T16:50:01.324Z,70.90
2023-04-16T16:53:36.793Z,71.19
2023-04-16T16:57:15.629Z,71.34
2023-04-16T17:00:52.100Z,71.78
2023-04-16T17:04:29.613Z,72.30
2023-04-16T17:08:07.254Z,72.44
2023-04-16T17:11:45.114Z,72.73
2023-04-16T17:15:22.865Z,72.93
2023-04-16T17:19:01.493Z,73.24
2023-04-16T17:22:39.476Z,73.48
2023-04-16T17:26:15.459Z,73.50
2023-04-16T17:30:00.221Z,73.88
2023-04-16T17:33:31.327Z,74.20
2023-04-16T17:37:08.564Z,74.23
2023-04-16T17:40:46.292Z,74.44
2023-04-16T17:44:25.840Z,74.34
2023-04-16T17:48:01.817Z,74.36
2023-04-16T17:51:39.029Z,74.17
2023-04-16T17:55:17.180Z,74.47
2023-04-16T17:58:54.698Z,74.98
2023-04-16T18:02:52.289Z,75.12
2023-04-16T18:06:10.218Z,75.01
2023-04-16T18:09:47.987Z,74.96
2023-04-16T18:13:25.614Z,75.24
2023-04-16T18:17:06.169Z,75.19
2023-04-16T18:20:41.391Z,75.26
2023-04-16T18:24:18.777Z,75.31
2023-04-16T18:27:57.738Z,75.39
2023-04-16T18:31:33.889Z,75.44
2023-04-16T18:35:12.054Z,75.67
2023-04-16T18:39:00.191Z,76.24
2023-04-16T18:42:29.605Z,75.99
2023-04-16T18:46:04.528Z,75.83
2023-04-16T18:49:42.623Z,75.76
2023-04-16T18:53:19.930Z,75.83
2023-04-16T18:56:59.672Z,75.35
2023-04-16T19:00:36.160Z,75.64
2023-04-16T19:04:13.179Z,75.52
2023-04-16T19:07:50.907Z,75.49
2023-04-16T19:11:28.456Z,74.96
2023-04-16T19:15:06.608Z,75.58
2023-04-16T19:18:43.793Z,75.77
2023-04-16T19:22:21.359Z,75.22
2023-04-16T19:25:58.956Z,75.26
2023-04-16T19:29:37.246Z,75.39
2023-04-16T19:33:14.332Z,75.78
2023-04-16T19:36:52.381Z,76.20
2023-04-16T19:40:49.040Z,76.62
2023-04-16T19:44:07.889Z,76.94
2023-04-16T19:47:45.219Z,77.19
2023-04-16T19:51:23.306Z,76.85
2023-04-16T19:55:00.866Z,76.97
2023-04-16T19:58:40.386Z,77.12
2023-04-16T20:02:16.001Z,76.98
2023-04-16T20:05:53.736Z,77.22
2023-04-16T20:09:31.245Z,77.51
2023-04-16T20:13:12.303Z,77.62
2023-04-16T20:16:46.555Z,77.86
2023-04-16T20:20:24.364Z,78.40
2023-04-16T20:24:02.025Z,78.54
2023-04-16T20:27:39.448Z,78.67
2023-04-16T20:31:17.259Z,78.83
2023-04-16T20:34:57.920Z,78.64
2023-04-16T20:38:34.305Z,78.51
2023-04-16T20:42:10.720Z,78.94
2023-04-16T20:45:50.212Z,79.40
2023-04-16T20:49:25.656Z,79.17
2023-04-16T20:53:03.805Z,79.48
2023-04-16T20:56:41.942Z,79.45
2023-04-16T21:00:18.588Z,79.62
2023-04-16T21:07:34.080Z,78.88
2023-04-16T21:11:12.680Z,78.83
2023-04-16T21:14:49.802Z,79.24
2023-04-16T21:18:27.056Z,78.73
2023-04-16T21:22:04.940Z,78.06
2023-04-16T21:25:42.411Z,78.58
2023-04-16T21:29:20.208Z,78.71
2023-04-16T21:32:57.952Z,78.35
2023-04-16T21:36:35.755Z,77.75
2023-04-16T21:40:13.442Z,77.73
2023-04-16T21:43:51.057Z,77.77
2023-04-16T21:47:28.485Z,77.56
2023-04-16T21:51:06.707Z,77.38
2023-04-16T21:54:44.339Z,77.70
2023-04-16T21:58:21.672Z,77.46
2023-04-16T22:01:59.046Z,77.00
2023-04-16T22:05:37.524Z,76.94
2023-04-16T22:09:16.601Z,77.34
2023-04-16T22:12:55.005Z,77.23
2023-04-16T22:16:30.201Z,77.35
2023-04-16T22:20:11.629Z,77.70
2023-04-16T22:23:45.820Z,77.81
2023-04-16T22:27:23.378Z,78.19
2023-04-16T22:31:00.407Z,78.46
2023-04-16T22:34:38.598Z,78.49
2023-04-16T22:38:16.688Z,78.24
2023-04-16T22:41:53.604Z,77.93
2023-04-16T22:45:31.836Z,77.84
2023-04-16T22:49:08.918Z,78.16
2023-04-16T22:52:46.844Z,78.08
2023-04-16T22:56:28.847Z,78.24
2023-04-16T23:00:01.982Z,78.00
2023-04-16T23:03:39.954Z,78.44
2023-04-16T23:07:17.301Z,78.18
2023-04-16T23:10:55.145Z,78.39
2023-04-16T23:14:32.801Z,78.76
2023-04-16T23:18:10.593Z,78.56
2023-04-16T23:21:48.120Z,78.39
2023-04-16T23:25:25.708Z,78.92
2023-04-16T23:29:03.464Z,78.67
2023-04-16T23:32:41.220Z,79.33
2023-04-16T23:36:18.656Z,78.93
2023-04-16T23:39:56.381Z,79.43
2023-04-16T23:43:35.193Z,79.38
2023-04-16T23:47:11.887Z,79.48
2023-04-16T23:50:49.521Z,79.73
2023-04-16T23:54:27.643Z,79.72
2023-04-16T23:58:04.720Z,80.04
